Main page
METAR-TAF:

METAR-TAF

Airports :

Bristol Airport

Bristol, England

latitude: 51-23N, longitude: 002-43W, elevation: 189 m

Current weather observation

The report was made 29 minutes ago, at 01:50 UTC
Wind 10 kt from the Northwest
Temperature 10°C
Humidity 87%
Pressure 1024 hPa
Visibility 10 km or more

METAR: EGGD 210150Z AUTO 31010KT 9999 NCD 10/08 Q1024

Time: 03:19 (02:19 UTC)

Forecast

The report was made 3 hours and 24 minutes ago, at 22:55 UTC
Forecast valid from 21 at 00 UTC to 21 at 24 UTC
Wind 10 kt from the Northwest
Visibility 10 km or more
Scattered clouds at a height of 3000 ft

TAF: EGGD 202255Z 2100/2124 32010KT 9999 SCT030

Weather observations and forecasts of more than 4000 airports (METAR and TAF reports).

The available stations are represented by yellow and red dots on the map.

Hover mouse over dot to see the name of the station.

Then click to see weather observations and forecasts.

To change the map : click on the green buttons with a black cross to zoom in, on the green button with a dash to zoom out, or on the green arrows for adjacent maps.


METAR-TAF: